createdAt,value
2022-09-23T00:01:07.681Z,57.15
2022-09-23T00:03:36.004Z,56.83
2022-09-23T00:06:10.784Z,56.63
2022-09-23T00:08:38.404Z,56.17
2022-09-23T00:11:16.827Z,56.19
2022-09-23T00:13:45.428Z,55.85
2022-09-23T00:16:15.058Z,55.75
2022-09-23T00:18:42.603Z,56.02
2022-09-23T00:21:13.063Z,55.76
2022-09-23T00:23:40.672Z,55.43
2022-09-23T00:26:10.236Z,55.84
2022-09-23T00:28:37.011Z,55.84
2022-09-23T00:31:04.988Z,56.14
2022-09-23T00:33:31.850Z,55.53
2022-09-23T00:36:06.213Z,56.04
2022-09-23T00:38:34.119Z,56.11
2022-09-23T00:41:01.130Z,55.98
2022-09-23T00:43:41.021Z,58.02
2022-09-23T00:46:11.517Z,58.25
2022-09-23T00:48:41.247Z,57.48
2022-09-23T00:51:12.267Z,57.66
2022-09-23T00:53:39.860Z,58.82
2022-09-23T00:56:10.312Z,58.28
2022-09-23T00:58:41.698Z,58.04
2022-09-23T01:01:08.791Z,59.48
2022-09-23T01:03:35.690Z,58.21
2022-09-23T01:06:02.347Z,58.71
2022-09-23T01:08:29.228Z,58.29
2022-09-23T01:11:17.490Z,58.34
2022-09-23T01:13:49.480Z,59.49
2022-09-23T01:16:24.461Z,60.44
2022-09-23T01:18:59.732Z,60.63
2022-09-23T01:21:51.910Z,59.52
2022-09-23T01:24:55.617Z,59.79
2022-09-23T01:27:25.243Z,59.94
2022-09-23T01:30:07.156Z,59.19
2022-09-23T01:32:46.391Z,60.00
2022-09-23T01:35:30.503Z,59.59
2022-09-23T01:38:38.248Z,59.63
2022-09-23T01:41:22.662Z,59.21
2022-09-23T01:44:08.444Z,60.11
2022-09-23T01:46:48.790Z,61.34
2022-09-23T01:49:40.164Z,61.09
2022-09-23T01:52:09.615Z,61.31
2022-09-23T01:54:46.652Z,60.52
2022-09-23T01:57:31.900Z,60.63
2022-09-23T02:00:24.703Z,61.56
2022-09-23T02:03:16.826Z,60.82
2022-09-23T02:05:49.567Z,60.22
2022-09-23T02:08:29.509Z,61.20
2022-09-23T02:11:04.695Z,60.75
2022-09-23T02:13:45.927Z,60.35
2022-09-23T02:16:50.110Z,61.19
2022-09-23T02:19:16.787Z,61.50
2022-09-23T02:21:49.836Z,60.87
2022-09-23T02:24:26.001Z,60.98
2022-09-23T02:27:20.410Z,61.00
2022-09-23T02:30:10.109Z,60.51
2022-09-23T02:32:45.204Z,60.36
2022-09-23T02:35:26.803Z,60.43
2022-09-23T02:38:14.870Z,60.57
2022-09-23T02:41:00.074Z,60.57
2022-09-23T02:43:39.261Z,59.85
2022-09-23T02:46:07.402Z,60.10
2022-09-23T02:49:13.707Z,60.05
2022-09-23T02:51:41.004Z,59.77
2022-09-23T02:54:14.647Z,60.16
2022-09-23T02:56:42.128Z,59.87
2022-09-23T02:59:09.722Z,60.47
2022-09-23T03:02:14.114Z,60.26
2022-09-23T03:05:07.396Z,60.27
2022-09-23T03:07:50.805Z,60.07
2022-09-23T03:10:47.232Z,60.01
2022-09-23T03:13:36.241Z,60.94
2022-09-23T03:16:43.694Z,60.48
2022-09-23T03:19:35.399Z,62.23
2022-09-23T03:22:20.710Z,65.60
2022-09-23T03:24:53.765Z,63.85
2022-09-23T03:27:26.806Z,63.69
2022-09-23T03:29:54.879Z,65.21
2022-09-23T03:32:24.798Z,64.38
2022-09-23T03:34:54.230Z,64.35
2022-09-23T03:37:29.847Z,63.52
2022-09-23T03:39:59.999Z,63.83
2022-09-23T03:42:30.681Z,65.07
2022-09-23T03:44:57.679Z,64.63
2022-09-23T03:47:28.733Z,63.96
2022-09-23T03:49:56.842Z,64.13
2022-09-23T03:52:24.807Z,63.60
2022-09-23T03:54:52.250Z,63.39
2022-09-23T03:57:22.118Z,63.71
2022-09-23T03:59:50.613Z,63.77
2022-09-23T04:02:19.111Z,64.33
2022-09-23T04:04:46.115Z,64.42
2022-09-23T04:07:13.659Z,64.04
2022-09-23T04:09:40.593Z,64.09
2022-09-23T04:12:07.664Z,64.49
2022-09-23T04:14:34.513Z,64.40
2022-09-23T04:17:01.089Z,63.82
2022-09-23T04:19:27.699Z,64.25
2022-09-23T04:21:54.304Z,64.56
2022-09-23T04:24:21.800Z,64.44
2022-09-23T04:26:55.419Z,63.92
2022-09-23T04:29:23.263Z,62.76
2022-09-23T04:31:50.550Z,63.34
2022-09-23T04:34:18.117Z,64.86
2022-09-23T04:36:46.492Z,63.87
2022-09-23T04:39:14.987Z,64.96
2022-09-23T04:41:42.492Z,64.65
2022-09-23T04:44:09.289Z,64.19
2022-09-23T04:46:35.922Z,63.81
2022-09-23T04:49:02.638Z,64.63
2022-09-23T04:51:29.309Z,64.54
2022-09-23T04:53:56.224Z,65.09
2022-09-23T04:56:25.317Z,64.43
2022-09-23T04:58:52.727Z,63.93
2022-09-23T05:01:24.837Z,64.00
2022-09-23T05:03:54.209Z,64.11
2022-09-23T05:06:21.659Z,63.86
2022-09-23T05:08:50.768Z,64.16
2022-09-23T05:11:18.742Z,64.03
2022-09-23T05:13:47.672Z,63.35
2022-09-23T05:16:16.864Z,63.44
2022-09-23T05:18:44.565Z,63.36
2022-09-23T05:21:13.684Z,63.39
2022-09-23T05:23:41.112Z,63.68
2022-09-23T05:26:10.635Z,64.42
2022-09-23T05:28:39.367Z,64.67
2022-09-23T05:31:08.858Z,64.29
2022-09-23T05:33:37.027Z,63.89
2022-09-23T05:36:04.782Z,64.71
2022-09-23T05:38:32.059Z,64.79
2022-09-23T05:41:04.006Z,64.08
2022-09-23T05:43:31.855Z,63.40
2022-09-23T05:46:16.379Z,62.67
2022-09-23T05:48:45.867Z,62.78
2022-09-23T05:51:20.512Z,62.24
2022-09-23T05:53:48.453Z,62.44
2022-09-23T05:56:17.435Z,61.92
2022-09-23T05:58:44.766Z,62.20
2022-09-23T06:01:18.177Z,63.12
2022-09-23T06:03:55.943Z,62.67
2022-09-23T06:06:39.809Z,62.31
2022-09-23T06:09:07.927Z,62.05
2022-09-23T06:11:36.235Z,62.55
2022-09-23T06:14:04.126Z,62.66
2022-09-23T06:16:33.473Z,63.89
2022-09-23T06:19:05.812Z,64.39
2022-09-23T06:21:35.364Z,63.78
2022-09-23T06:24:02.977Z,63.32
2022-09-23T06:26:32.674Z,63.42
2022-09-23T06:28:59.852Z,64.15
2022-09-23T06:31:26.548Z,64.10
2022-09-23T06:34:03.835Z,62.92
2022-09-23T06:36:42.753Z,62.33
2022-09-23T06:39:10.311Z,63.29
2022-09-23T06:41:36.916Z,62.90
2022-09-23T06:44:03.597Z,63.01
2022-09-23T06:46:31.877Z,63.04
2022-09-23T06:48:59.297Z,62.54
2022-09-23T06:51:25.876Z,63.19
2022-09-23T06:53:52.602Z,64.73
2022-09-23T06:56:21.067Z,65.08
2022-09-23T06:58:47.959Z,64.85
2022-09-23T07:01:17.770Z,64.98
2022-09-23T07:03:46.335Z,67.00
2022-09-23T07:06:13.239Z,66.36
2022-09-23T07:08:43.619Z,66.97
2022-09-23T07:11:12.324Z,65.91
2022-09-23T07:13:41.327Z,65.90
2022-09-23T07:16:09.287Z,65.27
2022-09-23T07:18:37.649Z,66.91
2022-09-23T07:21:16.983Z,65.65
2022-09-23T07:23:48.062Z,65.80
2022-09-23T07:26:15.816Z,67.00
2022-09-23T07:28:42.921Z,65.80
2022-09-23T07:31:11.793Z,65.21
2022-09-23T07:33:43.778Z,65.46
2022-09-23T07:36:13.817Z,64.38
2022-09-23T07:38:45.295Z,63.90
2022-09-23T07:41:15.382Z,63.79
2022-09-23T07:43:42.106Z,62.60
2022-09-23T07:46:13.183Z,62.79
2022-09-23T07:48:40.263Z,61.67
2022-09-23T07:51:17.267Z,61.69
2022-09-23T07:53:50.063Z,60.71
2022-09-23T07:56:19.119Z,60.96
2022-09-23T07:58:47.039Z,61.49
2022-09-23T08:01:13.824Z,60.36
2022-09-23T08:03:40.463Z,58.82
2022-09-23T08:06:12.140Z,57.79
2022-09-23T08:08:43.663Z,57.17
2022-09-23T08:11:13.357Z,57.41
2022-09-23T08:13:40.787Z,57.86
2022-09-23T08:16:07.544Z,57.91
2022-09-23T08:18:34.847Z,56.84
2022-09-23T08:21:01.965Z,55.90
2022-09-23T08:23:33.401Z,56.30
2022-09-23T08:26:03.062Z,54.79
2022-09-23T08:28:30.441Z,54.58
2022-09-23T08:30:57.172Z,54.89
2022-09-23T08:33:24.141Z,53.82
2022-09-23T08:35:52.480Z,53.41
2022-09-23T08:38:20.392Z,54.23
2022-09-23T08:40:49.612Z,52.88
2022-09-23T08:43:29.052Z,52.51
2022-09-23T08:46:00.312Z,53.07
2022-09-23T08:48:45.434Z,51.68
2022-09-23T08:51:22.413Z,51.89
2022-09-23T08:53:49.510Z,51.52
2022-09-23T08:56:23.811Z,50.32
2022-09-23T08:59:09.587Z,50.07
2022-09-23T09:01:59.348Z,49.36
2022-09-23T09:04:48.729Z,49.66
2022-09-23T09:07:37.900Z,50.13
2022-09-23T09:10:06.684Z,49.75
2022-09-23T09:12:41.890Z,50.33
2022-09-23T09:15:45.604Z,49.16
2022-09-23T09:18:21.791Z,49.03
2022-09-23T09:21:16.147Z,51.93
2022-09-23T09:23:55.271Z,51.30
2022-09-23T09:26:27.988Z,49.83
2022-09-23T09:29:11.372Z,48.71
2022-09-23T09:31:49.919Z,48.23
2022-09-23T09:34:38.073Z,49.40
2022-09-23T09:37:08.507Z,49.56
2022-09-23T09:39:36.369Z,49.60
2022-09-23T09:42:06.016Z,49.54
2022-09-23T09:44:49.493Z,49.86
2022-09-23T09:47:53.611Z,50.54
2022-09-23T09:50:44.613Z,49.17
2022-09-23T09:53:28.250Z,48.69
2022-09-23T09:56:05.772Z,50.37
2022-09-23T09:58:58.564Z,52.02
2022-09-23T10:01:31.374Z,49.84
2022-09-23T10:04:01.122Z,49.97
2022-09-23T10:06:38.171Z,48.26
2022-09-23T10:09:11.741Z,48.32
2022-09-23T10:11:38.940Z,47.39
2022-09-23T10:14:05.613Z,46.90
2022-09-23T10:16:34.505Z,47.55
2022-09-23T10:19:03.310Z,46.87
2022-09-23T10:21:36.993Z,45.05
2022-09-23T10:24:07.816Z,45.80
2022-09-23T10:26:44.202Z,45.10
2022-09-23T10:29:31.185Z,43.08
2022-09-23T10:32:25.858Z,43.79
2022-09-23T10:35:09.020Z,44.57
2022-09-23T10:37:38.654Z,44.47
2022-09-23T10:40:33.978Z,43.68
2022-09-23T10:43:37.931Z,42.08
2022-09-23T10:46:31.586Z,41.91
2022-09-23T10:49:25.948Z,41.63
2022-09-23T10:52:16.804Z,41.04
2022-09-23T10:54:49.464Z,40.97
2022-09-23T10:57:40.637Z,40.89
2022-09-23T11:00:22.429Z,39.26
2022-09-23T11:02:52.592Z,41.67
2022-09-23T11:05:57.264Z,39.95
2022-09-23T11:08:51.603Z,38.86
2022-09-23T11:11:28.374Z,38.57
2022-09-23T11:14:15.898Z,39.55
2022-09-23T11:16:54.386Z,40.69
2022-09-23T11:19:56.552Z,40.64
2022-09-23T11:23:03.129Z,38.34
2022-09-23T11:26:00.455Z,39.53
2022-09-23T11:29:11.801Z,39.84
2022-09-23T11:32:10.163Z,37.84
2022-09-23T11:35:03.227Z,36.58
2022-09-23T11:37:35.584Z,36.90
2022-09-23T11:40:20.898Z,38.36
2022-09-23T11:43:25.849Z,40.05
2022-09-23T11:46:01.023Z,39.36
2022-09-23T11:48:32.563Z,39.41
2022-09-23T11:51:05.023Z,36.67
2022-09-23T11:53:44.354Z,36.73
2022-09-23T11:56:35.429Z,37.08
2022-09-23T11:59:33.006Z,35.23
2022-09-23T12:02:21.121Z,35.63
2022-09-23T12:05:03.261Z,38.40
2022-09-23T12:08:05.079Z,35.13
2022-09-23T12:11:08.723Z,34.55
2022-09-23T12:14:04.241Z,35.47
2022-09-23T12:16:42.941Z,36.21
2022-09-23T12:19:28.104Z,35.62
2022-09-23T12:22:06.515Z,35.12
2022-09-23T12:24:47.079Z,37.05
2022-09-23T12:27:26.057Z,34.63
2022-09-23T12:29:57.713Z,35.07
2022-09-23T12:32:25.174Z,35.08
2022-09-23T12:34:53.533Z,35.57
2022-09-23T12:37:35.909Z,34.43
2022-09-23T12:40:09.494Z,35.06
2022-09-23T12:42:47.121Z,34.14
2022-09-23T12:45:28.277Z,32.35
2022-09-23T12:47:54.960Z,32.14
2022-09-23T12:50:50.893Z,32.96
2022-09-23T12:53:35.378Z,33.86
2022-09-23T12:56:15.524Z,30.80
2022-09-23T12:58:42.167Z,32.35
2022-09-23T13:01:36.072Z,32.79
2022-09-23T13:04:21.662Z,33.28
2022-09-23T13:07:09.024Z,32.76
2022-09-23T13:09:46.751Z,33.43
2022-09-23T13:12:21.159Z,32.31
2022-09-23T13:14:52.480Z,32.84
2022-09-23T13:17:45.219Z,31.69
2022-09-23T13:20:20.711Z,32.39
2022-09-23T13:22:50.100Z,32.35
2022-09-23T13:25:20.986Z,32.21
2022-09-23T13:27:56.144Z,32.30
2022-09-23T13:30:26.688Z,31.67
2022-09-23T13:33:05.619Z,32.12
2022-09-23T13:35:39.097Z,31.79
2022-09-23T13:38:25.738Z,31.37
2022-09-23T13:41:07.994Z,31.48
2022-09-23T13:43:41.562Z,29.97
2022-09-23T13:46:19.934Z,32.04
2022-09-23T13:48:48.951Z,31.49
2022-09-23T13:51:24.843Z,33.12
2022-09-23T13:53:54.420Z,33.08
2022-09-23T13:56:22.088Z,33.33
2022-09-23T13:58:49.933Z,34.02
2022-09-23T14:01:22.529Z,35.70
2022-09-23T14:03:49.212Z,34.23
2022-09-23T14:06:16.583Z,32.98
2022-09-23T14:08:50.383Z,33.01
2022-09-23T14:11:18.756Z,35.37
2022-09-23T14:13:47.195Z,34.08
2022-09-23T14:16:16.191Z,33.93
2022-09-23T14:18:49.196Z,34.18
2022-09-23T14:21:36.352Z,32.84
2022-09-23T14:24:12.316Z,33.18
2022-09-23T14:26:40.376Z,33.58
2022-09-23T14:29:23.412Z,34.29
2022-09-23T14:31:57.374Z,33.36
2022-09-23T14:34:44.885Z,34.00
2022-09-23T14:37:54.854Z,33.55
2022-09-23T14:40:32.242Z,32.87
2022-09-23T14:43:04.868Z,33.24
2022-09-23T14:45:37.333Z,34.36
2022-09-23T14:48:16.839Z,32.97
2022-09-23T14:51:01.148Z,34.02
2022-09-23T14:53:40.649Z,34.53
2022-09-23T14:56:08.596Z,33.87
2022-09-23T14:58:56.375Z,33.39
2022-09-23T15:01:27.950Z,33.78
2022-09-23T15:03:56.335Z,35.19
2022-09-23T15:06:23.870Z,34.71
2022-09-23T15:08:52.759Z,35.10
2022-09-23T15:11:21.408Z,34.09
2022-09-23T15:13:53.048Z,34.22
2022-09-23T15:16:27.103Z,34.49
2022-09-23T15:18:57.765Z,34.50
2022-09-23T15:21:25.912Z,33.85
2022-09-23T15:23:57.815Z,34.89
2022-09-23T15:26:40.647Z,36.60
2022-09-23T15:29:10.810Z,35.76
2022-09-23T15:31:37.723Z,36.32
2022-09-23T15:34:05.647Z,38.71
2022-09-23T15:36:32.653Z,38.42
2022-09-23T15:39:05.267Z,37.73
2022-09-23T15:41:33.632Z,38.68
2022-09-23T15:44:13.227Z,40.40
2022-09-23T15:46:45.062Z,41.38
2022-09-23T15:49:26.241Z,40.64
2022-09-23T15:51:53.324Z,38.66
2022-09-23T15:54:19.973Z,39.04
2022-09-23T15:56:47.894Z,39.18
2022-09-23T15:59:14.576Z,38.88
2022-09-23T16:01:43.764Z,39.27
2022-09-23T16:04:11.758Z,38.81
2022-09-23T16:06:39.697Z,38.37
2022-09-23T16:09:06.397Z,38.56
2022-09-23T16:11:33.079Z,38.70
2022-09-23T16:14:00.817Z,38.50
2022-09-23T16:16:28.387Z,37.94
2022-09-23T16:18:55.328Z,38.25
2022-09-23T16:21:25.027Z,38.92
2022-09-23T16:23:53.477Z,39.21
2022-09-23T16:26:27.736Z,39.70
2022-09-23T16:28:56.339Z,40.20
2022-09-23T16:31:25.521Z,40.02
2022-09-23T16:33:53.199Z,40.61
2022-09-23T16:36:27.385Z,40.77
2022-09-23T16:38:57.767Z,40.88
2022-09-23T16:41:26.009Z,40.66
2022-09-23T16:43:53.658Z,40.48
2022-09-23T16:46:21.185Z,40.51
2022-09-23T16:48:52.576Z,42.12
2022-09-23T16:51:22.051Z,44.76
2022-09-23T16:53:49.812Z,45.29
2022-09-23T16:56:18.559Z,45.22
2022-09-23T16:58:48.747Z,43.09
2022-09-23T17:01:46.452Z,42.69
2022-09-23T17:04:14.739Z,42.10
2022-09-23T17:06:46.375Z,42.06
2022-09-23T17:09:13.007Z,42.61
2022-09-23T17:11:39.808Z,42.70
2022-09-23T17:14:06.532Z,43.09
2022-09-23T17:16:34.580Z,42.73
2022-09-23T17:19:07.677Z,43.01
2022-09-23T17:21:34.231Z,42.33
2022-09-23T17:24:01.013Z,42.49
2022-09-23T17:26:28.257Z,43.30
2022-09-23T17:28:56.109Z,46.01
2022-09-23T17:31:24.401Z,45.00
2022-09-23T17:33:52.727Z,43.79
2022-09-23T17:36:20.380Z,44.19
2022-09-23T17:38:48.503Z,44.76
2022-09-23T17:41:16.097Z,44.71
2022-09-23T17:43:43.159Z,43.97
2022-09-23T17:46:18.218Z,44.10
2022-09-23T17:48:45.663Z,44.07
2022-09-23T17:51:17.512Z,44.18
2022-09-23T17:53:45.681Z,44.47
2022-09-23T17:56:19.505Z,44.83
2022-09-23T17:58:48.367Z,44.78
2022-09-23T18:01:23.623Z,44.32
2022-09-23T18:03:58.519Z,43.99
2022-09-23T18:06:28.028Z,44.98
2022-09-23T18:08:56.130Z,45.10
2022-09-23T18:11:30.807Z,45.20
2022-09-23T18:13:59.673Z,44.66
2022-09-23T18:16:31.799Z,45.08
2022-09-23T18:19:00.651Z,45.07
2022-09-23T18:21:35.409Z,46.25
2022-09-23T18:26:49.859Z,45.66
2022-09-23T18:29:16.707Z,45.66
2022-09-23T18:31:44.424Z,45.99
2022-09-23T18:34:13.091Z,45.55
2022-09-23T18:36:40.524Z,45.90
2022-09-23T18:39:07.139Z,45.68
2022-09-23T18:41:35.129Z,46.20
2022-09-23T18:44:02.296Z,45.81
2022-09-23T18:46:30.067Z,47.62
2022-09-23T18:49:16.292Z,47.22
2022-09-23T18:51:51.057Z,47.52
2022-09-23T18:54:19.471Z,47.87
2022-09-23T18:56:46.491Z,47.47
2022-09-23T18:59:17.644Z,47.67
2022-09-23T19:01:45.969Z,47.35
2022-09-23T19:04:16.017Z,48.07
2022-09-23T19:06:42.843Z,48.63
2022-09-23T19:09:09.635Z,47.89
2022-09-23T19:11:36.569Z,47.96
2022-09-23T19:14:06.522Z,48.11
2022-09-23T19:16:34.865Z,48.36
2022-09-23T19:19:03.750Z,48.37
2022-09-23T19:21:30.821Z,48.00
2022-09-23T19:24:03.645Z,48.55
2022-09-23T19:26:39.113Z,47.91
2022-09-23T19:29:08.262Z,48.83
2022-09-23T19:31:40.359Z,50.39
2022-09-23T19:34:16.173Z,49.69
2022-09-23T19:36:44.605Z,49.21
2022-09-23T19:39:25.058Z,48.83
2022-09-23T19:41:52.750Z,49.71
2022-09-23T19:44:20.285Z,49.51
2022-09-23T19:46:53.439Z,49.79
2022-09-23T19:49:23.962Z,49.85
2022-09-23T19:51:51.577Z,49.57
2022-09-23T19:54:20.646Z,49.85
2022-09-23T19:56:48.730Z,49.83
2022-09-23T19:59:18.840Z,50.28
2022-09-23T20:01:47.885Z,49.91
2022-09-23T20:04:15.860Z,50.33
2022-09-23T20:06:42.643Z,50.40
2022-09-23T20:09:09.395Z,49.77
2022-09-23T20:11:36.096Z,50.17
2022-09-23T20:14:04.885Z,50.68
2022-09-23T20:16:37.015Z,50.30
2022-09-23T20:19:05.043Z,50.20
2022-09-23T20:21:32.119Z,51.02
2022-09-23T20:23:59.066Z,51.26
2022-09-23T20:26:44.749Z,50.59
2022-09-23T20:29:11.641Z,50.94
2022-09-23T20:31:40.464Z,52.02
2022-09-23T20:34:08.207Z,52.07
2022-09-23T20:36:35.431Z,53.13
2022-09-23T20:39:06.037Z,53.18
2022-09-23T20:41:36.786Z,52.90
2022-09-23T20:44:05.908Z,52.24
2022-09-23T20:46:32.615Z,52.34
2022-09-23T20:48:59.261Z,52.49
2022-09-23T20:51:26.360Z,52.82
2022-09-23T20:53:53.133Z,53.17
2022-09-23T20:56:23.516Z,52.73
2022-09-23T20:58:52.869Z,53.92
2022-09-23T21:01:20.887Z,53.24
2022-09-23T21:03:50.183Z,53.46
2022-09-23T21:06:19.048Z,53.44
2022-09-23T21:08:46.128Z,53.30
2022-09-23T21:11:15.442Z,52.88
2022-09-23T21:13:47.154Z,53.30
2022-09-23T21:16:17.380Z,52.89
2022-09-23T21:18:45.598Z,53.11
2022-09-23T21:21:14.394Z,53.57
2022-09-23T21:23:43.378Z,54.04
2022-09-23T21:26:16.406Z,52.85
2022-09-23T21:28:45.453Z,53.55
2022-09-23T21:31:23.586Z,53.83
2022-09-23T21:34:01.721Z,54.53
2022-09-23T21:36:30.864Z,55.37
2022-09-23T21:38:58.205Z,54.19
2022-09-23T21:41:25.000Z,54.88
2022-09-23T21:43:51.613Z,54.45
2022-09-23T21:46:20.477Z,54.53
2022-09-23T21:48:55.034Z,54.34
2022-09-23T21:51:25.460Z,57.13
2022-09-23T21:53:54.642Z,57.49
2022-09-23T21:56:23.748Z,60.09
2022-09-23T21:58:52.229Z,58.10
2022-09-23T22:01:21.284Z,56.22
2022-09-23T22:03:53.802Z,56.62
2022-09-23T22:06:27.151Z,56.14
2022-09-23T22:08:54.996Z,56.53
2022-09-23T22:11:42.433Z,57.70
2022-09-23T22:14:11.998Z,58.35
2022-09-23T22:16:39.422Z,57.54
2022-09-23T22:19:07.179Z,58.97
2022-09-23T22:21:38.778Z,57.85
2022-09-23T22:24:07.822Z,59.39
2022-09-23T22:26:36.707Z,58.61
2022-09-23T22:29:23.651Z,59.37
2022-09-23T22:32:08.816Z,57.52
2022-09-23T22:34:49.523Z,57.25
2022-09-23T22:37:20.117Z,59.00
2022-09-23T22:39:46.709Z,58.14
2022-09-23T22:42:14.272Z,57.53
2022-09-23T22:44:40.919Z,57.54
2022-09-23T22:47:09.258Z,57.13
2022-09-23T22:49:36.255Z,57.55
2022-09-23T22:52:04.130Z,58.04
2022-09-23T22:54:33.930Z,58.94
2022-09-23T22:57:03.863Z,59.75
2022-09-23T22:59:30.484Z,58.37
2022-09-23T23:01:59.136Z,58.55
2022-09-23T23:04:25.823Z,58.65
2022-09-23T23:06:52.460Z,57.97
2022-09-23T23:09:19.382Z,58.34
2022-09-23T23:11:47.244Z,57.98
2022-09-23T23:14:16.436Z,59.64
2022-09-23T23:16:46.962Z,59.25
2022-09-23T23:19:17.146Z,60.61
2022-09-23T23:21:45.722Z,59.92
2022-09-23T23:24:21.353Z,59.62
2022-09-23T23:26:48.974Z,58.93
2022-09-23T23:29:17.794Z,59.67
2022-09-23T23:31:44.661Z,59.27
2022-09-23T23:34:14.897Z,59.25
2022-09-23T23:36:41.823Z,59.54
2022-09-23T23:39:08.501Z,59.39
2022-09-23T23:41:35.180Z,58.96
2022-09-23T23:44:02.761Z,58.59
2022-09-23T23:46:31.175Z,58.48
2022-09-23T23:48:58.747Z,57.97
2022-09-23T23:51:26.995Z,58.12
2022-09-23T23:53:54.788Z,58.09
2022-09-23T23:56:24.873Z,58.95
2022-09-23T23:58:56.449Z,59.78
